Time;durP1;ratioP1;P1;durP2;ratioP2;P2;SDS_P1;SDS_P2;PMS_P1;PMS_P2;Temp;Humidity;BMP_temperature;BMP_pressure;BME280_temperature;BME280_humidity;BME280_pressure;Samples;Min_cycle;Max_cycle;Signal;HPM_P1;HPM_P2
2021/09/22 00:01:44;;;;;;;19.37;11.90;;;;;;;10.35;89.31;101280.02;1717279;82;25801;-77
2021/09/22 00:04:11;;;;;;;19.30;13.05;;;;;;;10.37;89.45;101276.66;1722589;82;27468;-79
2021/09/22 00:06:38;;;;;;;17.32;12.80;;;;;;;10.38;89.34;101279.69;1664691;83;26761;-77
2021/09/22 00:09:05;;;;;;;19.45;11.80;;;;;;;10.38;89.23;101280.19;1696099;83;25818;-77
2021/09/22 00:11:32;;;;;;;21.05;12.82;;;;;;;10.36;89.16;101281.70;1723072;83;25795;-77
2021/09/22 00:13:59;;;;;;;17.48;12.23;;;;;;;10.32;89.15;101279.53;1723060;83;25716;-77
2021/09/22 00:16:26;;;;;;;19.45;12.47;;;;;;;10.28;89.20;101279.53;1650381;83;28133;-76
2021/09/22 00:18:53;;;;;;;17.37;12.90;;;;;;;10.30;89.40;101279.70;1695607;83;25772;-76
2021/09/22 00:21:20;;;;;;;19.35;13.45;;;;;;;10.31;89.31;101275.19;1722934;83;25944;-77
2021/09/22 00:23:48;;;;;;;20.97;12.85;;;;;;;10.31;89.36;101274.67;1722918;83;25864;-77
2021/09/22 00:26:15;;;;;;;20.30;12.37;;;;;;;10.28;89.33;101269.67;1672852;83;25927;-77
2021/09/22 00:28:42;;;;;;;17.52;11.90;;;;;;;10.29;89.36;101279.36;1695610;83;27541;-77
2021/09/22 00:31:11;;;;;;;17.48;11.95;;;;;;;10.30;89.45;101269.00;1708282;83;25898;-77
2021/09/22 00:33:38;;;;;;;18.20;12.15;;;;;;;10.30;89.51;101278.37;1718416;83;25676;-77
2021/09/22 00:36:06;;;;;;;16.87;11.88;;;;;;;10.32;89.54;101274.17;1646260;83;25843;-77
2021/09/22 00:38:33;;;;;;;19.70;12.80;;;;;;;10.32;89.47;101272.34;1632150;84;25886;-77
2021/09/22 00:41:00;;;;;;;17.55;11.73;;;;;;;10.31;89.60;101269.31;1690172;83;28191;-77
2021/09/22 00:43:27;;;;;;;17.77;12.23;;;;;;;10.26;89.45;101271.67;1677521;84;25816;-77
2021/09/22 00:45:54;;;;;;;16.67;11.38;;;;;;;10.29;89.63;101276.68;1654349;84;25749;-77
2021/09/22 00:48:21;;;;;;;19.90;12.35;;;;;;;10.28;89.61;101267.48;1632031;84;25849;-77
2021/09/22 00:50:50;;;;;;;19.02;11.88;;;;;;;10.27;89.68;101270.66;1704959;84;25795;-77
2021/09/22 00:53:18;;;;;;;18.67;11.90;;;;;;;10.28;89.65;101268.83;1653160;84;27429;-77
2021/09/22 00:55:45;;;;;;;18.73;12.88;;;;;;;10.31;89.73;101271.17;1676992;84;25809;-77
2021/09/22 00:58:12;;;;;;;18.00;11.60;;;;;;;10.31;89.62;101268.50;1654088;84;25869;-77
2021/09/22 01:00:39;;;;;;;18.60;12.37;;;;;;;10.29;89.62;101265.97;1654292;84;25829;-77
2021/09/22 01:03:06;;;;;;;16.45;11.90;;;;;;;10.25;89.54;101265.97;1718461;82;25857;-76
2021/09/22 01:05:33;;;;;;;18.32;12.05;;;;;;;10.22;89.59;101270.34;1715520;82;27414;-77
2021/09/22 01:08:01;;;;;;;18.67;12.85;;;;;;;10.23;89.67;101261.79;1646397;83;25828;-77
2021/09/22 01:10:28;;;;;;;17.45;12.05;;;;;;;10.23;89.72;101260.45;1691400;83;25875;-77
2021/09/22 01:12:55;;;;;;;17.37;12.15;;;;;;;10.25;89.77;101256.61;1721930;82;26451;-77
2021/09/22 01:15:30;;;;;;;19.55;11.28;;;;;;;10.22;89.67;101263.66;1703905;82;25908;-77
2021/09/22 01:17:57;;;;;;;19.87;12.18;;;;;;;10.19;89.58;101268.48;1676799;84;27453;-78
2021/09/22 01:20:29;;;;;;;16.20;11.93;;;;;;;10.15;89.62;101269.83;1704134;82;25758;-77
2021/09/22 01:22:59;;;;;;;16.23;11.95;;;;;;;10.11;89.76;101266.66;1729244;82;26549;-77
2021/09/22 01:25:27;;;;;;;17.55;11.38;;;;;;;10.10;89.79;101267.62;1651432;84;26395;-77
2021/09/22 01:27:59;;;;;;;19.07;11.85;;;;;;;10.09;89.79;101268.11;1705019;82;26620;-77
2021/09/22 01:30:27;;;;;;;19.60;12.03;;;;;;;10.08;89.77;101265.12;1704044;82;28739;-77
2021/09/22 01:33:03;;;;;;;21.62;12.40;;;;;;;10.06;89.78;101264.95;1729344;82;26586;-77
2021/09/22 01:35:40;;;;;;;17.57;12.20;;;;;;;10.04;89.70;101265.13;1702813;82;26511;-78
2021/09/22 01:38:16;;;;;;;20.70;12.82;;;;;;;10.06;89.74;101266.28;1717359;83;25828;-78
2021/09/22 01:41:06;;;;;;;18.10;12.07;;;;;;;10.07;89.68;101267.97;1728374;82;26620;-77
2021/09/22 01:43:37;;;;;;;17.62;12.25;;;;;;;10.06;89.55;101267.13;1729499;81;27557;-78
2021/09/22 01:46:07;;;;;;;15.95;11.48;;;;;;;10.04;89.38;101265.61;1702527;81;25833;-78
2021/09/22 01:48:35;;;;;;;20.12;12.03;;;;;;;10.01;89.35;101265.94;1681745;82;25761;-77
2021/09/22 01:51:04;;;;;;;16.73;11.83;;;;;;;9.97;89.35;101268.13;1681152;82;25978;-77
2021/09/22 01:53:34;;;;;;;;;;;;;;;9.95;89.27;101269.28;1732109;82;25694;-77
2021/09/22 01:56:03;;;;;;;18.02;11.60;;;;;;;9.93;89.45;101259.25;1675576;84;27573;-77
2021/09/22 01:58:31;;;;;;;18.00;12.35;;;;;;;9.91;89.43;101258.58;1704086;82;25818;-77
2021/09/22 02:01:04;;;;;;;18.40;11.97;;;;;;;9.90;89.32;101255.06;1692362;82;26603;-77
2021/09/22 02:03:37;;;;;;;19.17;12.80;;;;;;;9.91;89.34;101258.09;1726484;82;25771;-77
2021/09/22 02:06:06;;;;;;;19.62;11.53;;;;;;;9.91;89.32;101254.07;1680779;82;25988;-77
2021/09/22 02:08:36;;;;;;;17.90;11.28;;;;;;;9.91;89.31;101249.22;1704467;82;28566;-78
2021/09/22 02:11:06;;;;;;;20.00;11.60;;;;;;;9.92;89.41;101246.36;1703810;82;25873;-77
2021/09/22 02:13:36;;;;;;;18.27;12.00;;;;;;;9.93;89.32;101255.23;1729321;82;25820;-77
2021/09/22 02:16:05;;;;;;;18.20;11.50;;;;;;;9.94;89.38;101255.59;1658073;82;25863;-77
2021/09/22 02:18:48;;;;;;;17.60;11.40;;;;;;;9.94;89.25;101243.02;1623917;87;25478;-77
2021/09/22 02:21:16;;;;;;;16.77;11.35;;;;;;;9.94;89.24;101244.88;1677003;82;28306;-77
2021/09/22 02:23:43;;;;;;;17.90;11.55;;;;;;;9.95;89.42;101246.05;1729167;81;25947;-77
2021/09/22 02:26:11;;;;;;;17.80;11.88;;;;;;;9.96;89.35;101240.20;1680371;82;25805;-77
2021/09/22 02:28:40;;;;;;;17.37;12.18;;;;;;;9.96;89.33;101235.69;1704474;82;25857;-77
2021/09/22 02:31:08;;;;;;;16.10;11.85;;;;;;;9.92;89.20;101240.20;1704193;82;25834;-77
2021/09/22 02:33:43;;;;;;;18.50;12.53;;;;;;;9.91;89.27;101236.68;1727953;82;27529;-77
2021/09/22 02:36:10;;;;;;;19.65;13.18;;;;;;;9.91;89.32;101236.68;1675504;84;25797;-77
2021/09/22 02:38:48;;;;;;;19.60;12.10;;;;;;;9.92;89.41;101230.84;1674460;84;26060;-76
2021/09/22 02:41:15;;;;;;;23.90;16.27;;;;;;;9.91;89.31;101235.34;1704276;82;25876;-77
2021/09/22 02:43:42;;;;;;;24.90;16.25;;;;;;;9.90;89.26;101231.50;1729321;81;25872;-76
2021/09/22 02:46:09;;;;;;;18.40;12.40;;;;;;;9.87;89.31;101234.01;1675351;84;27164;-77
2021/09/22 02:48:38;;;;;;;16.90;11.60;;;;;;;9.88;89.48;101234.85;1671766;84;25892;-77
2021/09/22 02:51:05;;;;;;;17.92;11.63;;;;;;;9.89;89.37;101238.69;1680681;82;25548;-76
2021/09/22 02:53:33;;;;;;;17.35;11.18;;;;;;;9.88;89.39;101242.35;1729549;81;25821;-77
2021/09/22 02:56:00;;;;;;;17.37;11.12;;;;;;;9.86;89.32;101245.70;1703859;82;26615;-77
2021/09/22 02:58:28;;;;;;;17.48;11.48;;;;;;;9.84;89.31;101243.69;1651601;84;28154;-77
2021/09/22 03:00:57;;;;;;;19.65;11.80;;;;;;;9.83;89.35;101250.55;1674456;82;26422;-77
2021/09/22 03:03:24;;;;;;;19.80;12.18;;;;;;;9.77;89.28;101245.34;1728278;82;25941;-77
2021/09/22 03:05:51;;;;;;;17.55;11.85;;;;;;;9.74;89.39;101251.54;1631760;84;25845;-76
2021/09/22 03:08:18;;;;;;;18.40;12.68;;;;;;;9.70;89.54;101248.38;1708692;82;25622;-77
2021/09/22 03:10:45;;;;;;;16.07;11.65;;;;;;;9.68;89.69;101252.20;1702679;83;27465;-76
2021/09/22 03:13:12;;;;;;;15.10;11.18;;;;;;;9.69;89.79;101253.86;1726077;83;25853;-77
2021/09/22 03:15:39;;;;;;;18.17;12.10;;;;;;;9.71;89.79;101261.25;1711463;81;25782;-77
2021/09/22 03:18:06;;;;;;;15.75;11.10;;;;;;;9.69;89.74;101266.75;1714556;82;26572;-77
2021/09/22 03:20:34;;;;;;;15.58;11.00;;;;;;;9.68;89.84;101267.77;1684687;83;26517;-77
2021/09/22 03:23:01;;;;;;;16.90;11.48;;;;;;;9.65;89.82;101265.41;1726544;83;27478;-77
2021/09/22 03:25:36;;;;;;;19.30;11.25;;;;;;;9.62;89.92;101261.73;1679973;83;25856;-77
2021/09/22 03:28:04;;;;;;;19.60;12.15;;;;;;;9.59;89.96;101261.21;1679039;83;25849;-77
2021/09/22 03:30:32;;;;;;;17.65;12.03;;;;;;;9.56;89.97;101263.70;1702716;83;25943;-76
2021/09/22 03:33:04;;;;;;;17.35;12.28;;;;;;;9.55;90.10;101266.56;1709765;82;25813;-77
2021/09/22 03:35:31;;;;;;;21.62;13.10;;;;;;;9.54;90.14;101259.55;1663420;83;26959;-76
2021/09/22 03:37:59;;;;;;;17.57;11.40;;;;;;;9.55;90.25;101265.22;1735290;81;25788;-77
2021/09/22 03:40:26;;;;;;;24.40;12.30;;;;;;;9.58;90.33;101256.88;1711421;83;26538;-77
2021/09/22 03:42:55;;;;;;;23.65;16.52;;;;;;;9.60;90.41;101260.23;1725159;81;25796;-77
2021/09/22 03:45:23;;;;;;;22.13;13.70;;;;;;;9.61;90.33;101257.88;1708385;83;25777;-78
2021/09/22 03:47:51;;;;;;;16.35;11.83;;;;;;;9.65;90.46;101262.73;1729336;82;27533;-78
2021/09/22 03:50:18;;;;;;;18.75;11.43;;;;;;;9.68;90.36;101258.41;1699508;83;25854;-77
2021/09/22 03:52:53;;;;;;;16.95;11.80;;;;;;;9.71;90.32;101263.41;1699507;82;25426;-77
2021/09/22 03:55:20;;;;;;;18.35;11.45;;;;;;;9.68;90.11;101269.59;1714022;81;26621;-77
2021/09/22 03:57:47;;;;;;;16.97;11.20;;;;;;;9.66;90.10;101275.61;1707583;81;25737;-77
2021/09/22 04:00:15;;;;;;;16.75;11.90;;;;;;;9.66;90.13;101271.60;1688185;83;27580;-77
2021/09/22 04:02:42;;;;;;;17.50;11.28;;;;;;;9.60;89.97;101278.42;1687682;83;25995;-76
2021/09/22 04:05:09;;;;;;;18.62;11.28;;;;;;;9.56;90.12;101278.94;1680550;83;25880;-77
2021/09/22 04:07:37;;;;;;;17.00;11.83;;;;;;;9.53;90.16;101279.26;1707372;83;25940;-77
2021/09/22 04:10:07;;;;;;;15.63;11.40;;;;;;;9.52;90.25;101273.06;1680933;83;25779;-77
2021/09/22 04:12:34;;;;;;;17.67;11.33;;;;;;;9.54;90.38;101270.25;1707324;83;27521;-77
2021/09/22 04:15:03;;;;;;;15.63;11.10;;;;;;;9.55;90.35;101267.40;1680808;83;26584;-77
2021/09/22 04:17:30;;;;;;;16.87;11.30;;;;;;;9.57;90.39;101273.91;1658340;83;26097;-77
2021/09/22 04:19:57;;;;;;;18.50;12.28;;;;;;;9.59;90.43;101279.44;1681194;83;26588;-77
2021/09/22 04:22:25;;;;;;;17.60;12.35;;;;;;;9.60;90.53;101268.25;1708375;83;26331;-77
2021/09/22 04:24:52;;;;;;;20.97;11.97;;;;;;;9.61;90.48;101266.73;1658534;83;28142;-77
2021/09/22 04:27:19;;;;;;;17.27;12.60;;;;;;;9.62;90.45;101267.58;1685610;83;25784;-77
2021/09/22 04:29:58;;;;;;;23.40;12.70;;;;;;;9.61;90.46;101263.22;1666168;84;25413;-76
2021/09/22 04:32:44;;;;;;;17.75;12.95;;;;;;;9.58;90.34;101260.37;1684806;83;25782;-77
2021/09/22 04:35:30;;;;;;;19.45;15.05;;;;;;;9.58;90.50;101256.88;1670151;83;26571;-77
2021/09/22 04:38:16;;;;;;;21.77;14.60;;;;;;;9.55;90.40;101258.04;1639559;85;27592;-77
2021/09/22 04:40:51;;;;;;;16.32;12.10;;;;;;;9.58;90.64;101262.23;1617491;85;25906;-77
2021/09/22 04:43:36;;;;;;;17.90;11.57;;;;;;;9.59;90.72;101266.07;1645445;83;25912;-77
2021/09/22 04:46:22;;;;;;;16.73;11.08;;;;;;;9.60;90.66;101275.75;1703204;83;25861;-77
2021/09/22 04:49:07;;;;;;;18.45;11.93;;;;;;;9.58;90.69;101272.92;1679848;83;25731;-77
2021/09/22 04:51:53;;;;;;;18.10;12.93;;;;;;;9.60;90.72;101280.28;1702180;83;28145;-77
2021/09/22 04:54:22;;;;;;;17.37;11.93;;;;;;;9.59;90.70;101279.94;1615631;85;26096;-77
2021/09/22 04:57:07;;;;;;;18.55;13.08;;;;;;;9.56;90.79;101279.76;1678909;84;25844;-77
2021/09/22 04:59:53;;;;;;;16.35;11.05;;;;;;;9.56;90.90;101286.44;1664518;84;26599;-77
2021/09/22 05:02:38;;;;;;;18.00;12.23;;;;;;;9.56;90.94;101281.09;1666756;84;25859;-76
2021/09/22 05:05:24;;;;;;;16.45;11.63;;;;;;;9.56;90.97;101292.31;1639065;84;27416;-76
2021/09/22 05:08:10;;;;;;;18.42;11.78;;;;;;;9.54;90.99;101288.97;1671876;83;25850;-77
2021/09/22 05:10:55;;;;;;;20.30;13.40;;;;;;;9.49;90.97;101288.61;1645778;85;25359;-77
2021/09/22 05:13:41;;;;;;;17.50;12.58;;;;;;;9.51;91.22;101284.78;1664648;84;25869;-76
2021/09/22 05:16:26;;;;;;;22.15;14.13;;;;;;;9.53;91.22;101288.62;1638444;84;25876;-77
2021/09/22 05:19:12;;;;;;;25.80;15.80;;;;;;;9.51;91.30;101283.44;1674991;85;27470;-76
2021/09/22 05:21:58;;;;;;;18.23;12.80;;;;;;;9.55;91.46;101282.60;1660240;85;25843;-76
2021/09/22 05:24:44;;;;;;;17.40;12.00;;;;;;;9.57;91.68;101281.45;1641413;85;25990;-77
2021/09/22 05:27:29;;;;;;;19.65;12.63;;;;;;;9.63;91.84;101290.64;1660186;84;25866;-77
2021/09/22 05:30:15;;;;;;;17.75;12.07;;;;;;;9.67;91.73;101292.83;1675569;85;26581;-77
2021/09/22 05:33:00;;;;;;;17.75;12.30;;;;;;;9.64;91.49;101290.98;1665509;84;27529;-78
2021/09/22 05:35:47;;;;;;;19.70;12.90;;;;;;;9.64;91.70;101290.50;1665868;84;25842;-77
2021/09/22 05:38:32;;;;;;;16.65;12.28;;;;;;;9.67;91.85;101290.64;1671875;83;26007;-78
2021/09/22 05:41:18;;;;;;;17.75;12.82;;;;;;;9.72;91.92;101293.67;1705612;84;25879;-78
2021/09/22 05:44:05;;;;;;;19.67;13.58;;;;;;;9.74;91.93;101293.01;1681447;84;25875;-77
2021/09/22 05:46:50;;;;;;;17.57;12.28;;;;;;;9.76;92.04;101299.88;1677010;83;27561;-78
2021/09/22 05:49:36;;;;;;;22.20;12.75;;;;;;;9.74;91.98;101309.06;1694946;81;25786;-77
2021/09/22 05:52:22;;;;;;;20.20;14.07;;;;;;;9.76;92.31;101309.23;1718590;82;26529;-78
2021/09/22 05:54:57;;;;;;;25.72;16.20;;;;;;;9.78;92.42;101309.06;1647572;84;26193;-78
2021/09/22 05:57:42;;;;;;;22.25;13.55;;;;;;;9.82;92.40;101314.42;1666127;84;25908;-77
2021/09/22 06:00:28;;;;;;;20.30;14.47;;;;;;;9.85;92.57;101324.81;1671860;83;27484;-77
2021/09/22 06:03:14;;;;;;;20.37;12.68;;;;;;;9.84;92.46;101321.78;1718365;83;25880;-77
2021/09/22 06:05:46;;;;;;;20.70;14.20;;;;;;;9.82;92.72;101325.97;1651901;84;25773;-76
2021/09/22 06:08:17;;;;;;;20.72;14.23;;;;;;;9.78;92.54;101333.14;1692182;83;26069;-77
2021/09/22 06:10:52;;;;;;;22.17;13.60;;;;;;;9.76;92.83;101332.47;1668934;83;25910;-76
2021/09/22 06:13:22;;;;;;;19.37;13.32;;;;;;;9.75;92.90;101328.14;1717184;83;27101;-76
2021/09/22 06:15:53;;;;;;;20.25;14.33;;;;;;;9.73;93.04;101332.82;1676011;84;25858;-77
2021/09/22 06:18:21;;;;;;;17.55;12.95;;;;;;;9.74;93.13;101339.83;1677199;84;25812;-76
2021/09/22 06:20:48;;;;;;;19.50;13.98;;;;;;;9.74;93.17;101333.14;1682227;81;25990;-77
2021/09/22 06:23:16;;;;;;;18.57;14.07;;;;;;;9.76;93.48;101341.84;1729665;82;25570;-76
2021/09/22 06:25:43;;;;;;;18.62;13.48;;;;;;;9.75;93.35;101337.50;1654019;84;27527;-77
2021/09/22 06:28:10;;;;;;;18.20;13.18;;;;;;;9.74;93.45;101342.01;1706493;82;26013;-77
2021/09/22 06:30:37;;;;;;;19.40;13.40;;;;;;;9.74;93.53;101348.70;1682710;82;25834;-77
2021/09/22 06:33:04;;;;;;;21.52;14.75;;;;;;;9.73;93.56;101347.01;1698963;84;26542;-76
2021/09/22 06:35:43;;;;;;;18.65;13.55;;;;;;;9.72;93.60;101343.17;1706550;82;26495;-75
2021/09/22 06:38:12;;;;;;;19.60;14.28;;;;;;;9.74;93.72;101347.36;1706812;82;27515;-78
2021/09/22 06:40:40;;;;;;;22.73;13.93;;;;;;;9.74;93.80;101345.17;1682698;82;25842;-77
2021/09/22 06:43:08;;;;;;;20.97;13.75;;;;;;;9.77;94.01;101344.86;1729785;82;25713;-76
2021/09/22 06:45:35;;;;;;;18.23;12.88;;;;;;;9.80;93.87;101345.86;1682707;82;25889;-77
2021/09/22 06:48:02;;;;;;;20.40;15.13;;;;;;;9.82;94.02;101349.20;1683042;82;25897;-77
2021/09/22 06:50:30;;;;;;;20.62;14.18;;;;;;;9.82;94.09;101354.55;1659945;82;27931;-77
2021/09/22 06:52:57;;;;;;;22.15;14.63;;;;;;;9.79;93.90;101353.56;1729613;82;25972;-77
2021/09/22 06:55:24;;;;;;;21.07;15.32;;;;;;;9.82;94.19;101358.57;1683119;82;25836;-77
2021/09/22 06:57:51;;;;;;;22.48;15.48;;;;;;;9.83;94.18;101349.06;1706310;82;26478;-77
2021/09/22 07:00:18;;;;;;;17.98;13.90;;;;;;;9.88;94.14;101345.37;1682666;82;25827;-77
2021/09/22 07:02:45;;;;;;;20.82;15.40;;;;;;;9.90;94.35;101344.70;1729712;82;28206;-76
2021/09/22 07:05:13;;;;;;;19.98;14.98;;;;;;;9.92;94.39;101342.70;1682727;82;26006;-78
2021/09/22 07:07:45;;;;;;;26.45;17.57;;;;;;;9.98;94.39;101342.56;1706321;82;26382;-76
2021/09/22 07:10:11;;;;;;;20.72;15.10;;;;;;;10.04;94.37;101339.22;1705744;82;26150;-77
2021/09/22 07:12:38;;;;;;;20.75;14.78;;;;;;;10.11;94.46;101347.46;1706545;82;25804;-77
2021/09/22 07:15:06;;;;;;;25.90;16.27;;;;;;;10.14;94.42;101351.16;1682966;82;27627;-77
2021/09/22 07:17:33;;;;;;;22.10;15.05;;;;;;;10.17;94.50;101358.84;1682794;82;25986;-77
2021/09/22 07:20:01;;;;;;;24.67;15.38;;;;;;;10.19;94.50;101365.71;1682651;82;25967;-77
2021/09/22 07:22:28;;;;;;;22.60;15.23;;;;;;;10.23;94.64;101369.73;1730005;82;25927;-79
2021/09/22 07:24:55;;;;;;;23.80;15.23;;;;;;;10.25;94.57;101377.59;1683064;82;25873;-80
2021/09/22 07:27:22;;;;;;;22.52;16.00;;;;;;;10.27;94.58;101375.58;1706391;82;27469;-79
2021/09/22 07:29:49;;;;;;;21.33;15.65;;;;;;;10.31;95.22;101375.09;1682914;82;25411;-77
2021/09/22 07:32:17;;;;;;;20.72;15.38;;;;;;;10.37;95.09;101374.41;1706680;82;26574;-76
2021/09/22 07:34:44;;;;;;;21.48;15.50;;;;;;;10.42;94.92;101365.88;1683125;82;25831;-77
2021/09/22 07:37:11;;;;;;;25.37;15.45;;;;;;;10.47;94.73;101368.91;1706245;81;25811;-77
2021/09/22 07:39:40;;;;;;;21.42;16.10;;;;;;;10.47;94.70;101366.23;1682568;82;27376;-76
2021/09/22 07:42:13;;;;;;;19.73;15.15;;;;;;;10.49;94.81;101373.09;1700083;84;25845;-76
2021/09/22 07:44:43;;;;;;;23.85;16.25;;;;;;;10.55;94.78;101368.91;1706298;82;25564;-77
2021/09/22 07:47:10;;;;;;;19.27;14.13;;;;;;;10.63;94.63;101372.91;1660500;82;26438;-76
2021/09/22 07:49:37;;;;;;;18.30;13.22;;;;;;;10.67;94.21;101374.28;1676521;84;25794;-77
2021/09/22 07:52:04;;;;;;;25.77;15.63;;;;;;;10.73;93.94;101378.42;1729559;81;27634;-77
2021/09/22 07:54:31;;;;;;;19.07;14.98;;;;;;;10.76;93.79;101379.94;1653897;84;26555;-78
2021/09/22 07:56:58;;;;;;;21.25;14.80;;;;;;;10.82;94.13;101380.59;1706105;82;26131;-77
2021/09/22 07:59:25;;;;;;;17.40;13.53;;;;;;;10.90;94.14;101373.91;1682727;82;25809;-77
2021/09/22 08:01:52;;;;;;;17.90;13.43;;;;;;;10.97;94.03;101375.41;1729557;82;25809;-77
2021/09/22 08:04:20;;;;;;;18.55;13.28;;;;;;;11.01;93.29;101374.90;1676825;84;28165;-77
2021/09/22 08:06:46;;;;;;;17.37;12.63;;;;;;;11.08;92.87;101377.70;1706282;82;25735;-77
2021/09/22 08:09:13;;;;;;;17.32;13.08;;;;;;;11.14;93.00;101378.39;1706342;82;26457;-77
2021/09/22 08:11:41;;;;;;;17.40;13.28;;;;;;;11.23;93.16;101381.36;1706492;82;25835;-77
2021/09/22 08:14:08;;;;;;;17.37;12.25;;;;;;;11.29;92.64;101378.83;1698738;83;25774;-77
2021/09/22 08:16:35;;;;;;;13.03;10.82;;;;;;;11.34;92.23;101383.17;1659514;82;27483;-78
2021/09/22 08:19:03;;;;;;;14.68;10.65;;;;;;;11.45;92.43;101380.62;1677386;84;25921;-77
2021/09/22 08:21:30;;;;;;;14.70;10.68;;;;;;;11.53;91.89;101377.91;1706057;82;25861;-77
2021/09/22 08:23:57;;;;;;;13.13;9.70;;;;;;;11.57;91.47;101384.59;1729786;81;26586;-77
2021/09/22 08:26:24;;;;;;;14.83;10.08;;;;;;;11.63;90.78;101384.73;1631703;84;26267;-77
2021/09/22 08:28:51;;;;;;;13.05;8.45;;;;;;;11.67;91.06;101378.56;1681668;82;27519;-77
2021/09/22 08:31:18;;;;;;;13.00;8.78;;;;;;;11.76;90.55;101379.36;1676605;84;25966;-77
2021/09/22 08:33:45;;;;;;;11.63;8.00;;;;;;;11.85;90.43;101381.81;1729489;81;25817;-77
2021/09/22 08:36:12;;;;;;;12.33;8.23;;;;;;;11.92;90.59;101371.20;1660296;82;26452;-77
2021/09/22 08:38:40;;;;;;;11.75;7.92;;;;;;;12.01;90.00;101374.18;1683035;82;25786;-77
2021/09/22 08:41:07;;;;;;;9.55;6.95;;;;;;;12.05;88.96;101368.78;1706627;82;27519;-77
2021/09/22 08:43:35;;;;;;;11.85;7.67;;;;;;;12.11;87.86;101365.37;1706510;82;25840;-78
2021/09/22 08:46:02;;;;;;;14.68;7.78;;;;;;;12.16;88.20;101365.19;1683066;82;25841;-77
2021/09/22 08:48:30;;;;;;;12.63;6.75;;;;;;;12.24;87.85;101368.31;1706051;82;25779;-78
2021/09/22 08:50:57;;;;;;;8.18;6.15;;;;;;;12.31;85.88;101363.41;1706666;82;25971;-77
2021/09/22 08:53:24;;;;;;;9.65;6.30;;;;;;;12.36;86.55;101361.00;1729521;82;27494;-77
2021/09/22 08:55:51;;;;;;;6.15;5.12;;;;;;;12.49;86.37;101364.42;1681903;82;26579;-78
2021/09/22 08:58:19;;;;;;;5.37;4.72;;;;;;;12.56;85.60;101354.63;1729515;82;25766;-77
2021/09/22 09:00:47;;;;;;;5.37;4.28;;;;;;;12.65;84.83;101353.55;1706518;82;26581;-77
2021/09/22 09:03:35;;;;;;;7.15;4.30;;;;;;;12.80;85.57;101357.60;1706536;82;25866;-77
2021/09/22 09:06:24;;;;;;;7.53;3.98;;;;;;;12.88;84.51;101352.98;1683434;82;27436;-77
2021/09/22 09:08:55;;;;;;;3.92;3.52;;;;;;;12.90;82.30;101352.29;1706329;82;25838;-78
2021/09/22 09:11:29;;;;;;;4.60;3.37;;;;;;;12.95;82.77;101355.27;1707019;82;25872;-76
2021/09/22 09:14:00;;;;;;;4.17;3.58;;;;;;;13.02;80.66;101354.03;1729838;82;25822;-77
2021/09/22 09:16:39;;;;;;;3.83;3.45;;;;;;;13.06;80.32;101349.98;1621139;84;25959;-77
2021/09/22 09:19:19;;;;;;;6.28;3.37;;;;;;;13.12;77.07;101351.42;1693077;83;27516;-77
2021/09/22 09:22:07;;;;;;;4.27;3.43;;;;;;;13.07;77.03;101353.82;1701846;83;25846;-77
2021/09/22 09:24:45;;;;;;;7.83;4.20;;;;;;;13.04;75.11;101350.64;1729542;82;25928;-78
2021/09/22 09:27:23;;;;;;;4.62;3.83;;;;;;;13.07;75.99;101350.29;1660728;81;26283;-77
2021/09/22 09:29:54;;;;;;;4.17;3.47;;;;;;;13.07;76.49;101339.53;1696481;84;25844;-77
2021/09/22 09:32:25;;;;;;;5.92;3.67;;;;;;;13.10;74.21;101350.78;1690823;84;28214;-77
2021/09/22 09:35:14;;;;;;;;;;;;;;;13.10;75.03;101345.39;1702967;84;25903;-77
2021/09/22 09:37:48;;;;;;;5.30;3.83;;;;;;;13.12;73.32;101358.65;1649222;85;26065;-77
2021/09/22 09:40:32;;;;;;;4.33;3.67;;;;;;;13.12;74.31;101346.55;1648090;85;25901;-77
2021/09/22 09:43:04;;;;;;;9.35;3.87;;;;;;;13.14;72.79;101338.63;1670796;85;25766;-77
2021/09/22 09:45:39;;;;;;;6.00;3.70;;;;;;;13.13;71.73;101338.78;1670794;85;27986;-77
2021/09/22 09:48:17;;;;;;;5.45;3.58;;;;;;;13.17;73.68;101346.84;1625660;85;25950;-77
2021/09/22 09:50:53;;;;;;;4.12;3.17;;;;;;;13.14;73.60;101339.13;1647733;85;25766;-77
2021/09/22 09:53:34;;;;;;;4.87;3.15;;;;;;;13.03;71.51;101340.39;1670869;84;26317;-77
2021/09/22 09:56:04;;;;;;;3.15;2.70;;;;;;;12.93;71.55;101336.30;1670592;85;25811;-78
2021/09/22 09:58:44;;;;;;;4.62;3.05;;;;;;;12.82;71.88;101336.75;1648255;85;27529;-76
2021/09/22 10:01:11;;;;;;;3.40;2.87;;;;;;;12.86;71.14;101329.98;1648330;85;26572;-77
2021/09/22 10:03:38;;;;;;;3.42;3.10;;;;;;;12.94;73.50;101315.94;1670687;85;26539;-77
2021/09/22 10:06:08;;;;;;;4.83;3.67;;;;;;;13.12;72.18;101322.34;1670372;84;25906;-77
2021/09/22 10:08:35;;;;;;;3.83;2.60;;;;;;;13.22;73.25;101318.84;1626493;85;25866;-77
2021/09/22 10:11:03;;;;;;;3.70;3.05;;;;;;;13.34;71.53;101321.41;1670731;85;27517;-77
2021/09/22 10:13:32;;;;;;;3.47;2.80;;;;;;;13.42;69.08;101321.80;1670425;85;25848;-77
2021/09/22 10:16:01;;;;;;;3.40;3.10;;;;;;;13.49;67.90;101332.99;1666170;85;25448;-78
2021/09/22 10:18:29;;;;;;;4.58;3.50;;;;;;;13.42;67.39;101336.10;1647702;85;25996;-77
2021/09/22 10:20:56;;;;;;;5.37;3.00;;;;;;;13.32;67.23;101327.99;1691638;84;25725;-77
2021/09/22 10:23:24;;;;;;;5.85;2.98;;;;;;;13.23;68.21;101333.14;1662575;85;27182;-77
2021/09/22 10:25:53;;;;;;;4.97;3.10;;;;;;;13.17;69.44;101329.35;1641130;86;25657;-77
2021/09/22 10:28:40;;;;;;;2.92;2.52;;;;;;;13.15;69.32;101331.39;1667593;84;26229;-77
2021/09/22 10:31:31;;;;;;;6.17;3.27;;;;;;;13.23;67.93;101327.77;1640627;86;26500;-78
2021/09/22 10:33:59;;;;;;;3.45;2.67;;;;;;;13.27;66.48;101319.13;1661409;86;25702;-78
2021/09/22 10:36:43;;;;;;;5.05;3.22;;;;;;;13.22;68.40;101325.57;1647787;85;27204;-77
2021/09/22 10:39:26;;;;;;;4.10;2.92;;;;;;;13.29;68.92;101317.09;1668333;84;25771;-77
2021/09/22 10:41:53;;;;;;;4.40;3.30;;;;;;;13.40;65.63;101305.02;1649036;85;25883;-77
2021/09/22 10:44:35;;;;;;;3.72;2.90;;;;;;;13.54;68.18;101318.44;1668973;84;25769;-77
2021/09/22 10:47:28;;;;;;;3.90;3.50;;;;;;;13.64;69.31;101316.81;1639713;86;25924;-77
2021/09/22 10:49:55;;;;;;;4.28;3.27;;;;;;;13.64;67.22;101321.66;1594475;87;27497;-77
2021/09/22 10:52:38;;;;;;;5.20;3.10;;;;;;;13.55;67.00;101316.59;1622208;87;26239;-77
2021/09/22 10:55:10;;;;;;;3.98;3.05;;;;;;;13.38;66.64;101321.86;1661261;84;25857;-78
2021/09/22 10:57:38;;;;;;;2.92;2.62;;;;;;;13.30;68.13;101321.43;1647632;85;26572;-78
2021/09/22 11:00:19;;;;;;;4.65;2.83;;;;;;;13.44;68.36;101313.88;1642358;84;25828;-78
2021/09/22 11:02:54;;;;;;;4.60;2.50;;;;;;;13.61;68.07;101311.29;1647755;85;28111;-77
2021/09/22 11:05:34;;;;;;;3.80;2.52;;;;;;;13.80;68.42;101309.33;1690667;84;25697;-78
2021/09/22 11:08:07;;;;;;;4.72;3.12;;;;;;;13.88;65.51;101311.06;1651528;86;25976;-78
2021/09/22 11:10:55;;;;;;;3.47;2.42;;;;;;;13.90;67.28;101311.20;1593936;86;25842;-78
2021/09/22 11:13:28;;;;;;;3.52;2.60;;;;;;;14.00;67.20;101307.36;1617661;86;25849;-78
2021/09/22 11:16:00;;;;;;;3.50;2.35;;;;;;;13.97;63.83;101311.27;1671278;85;27474;-77
2021/09/22 11:18:27;;;;;;;3.45;2.85;;;;;;;13.98;63.96;101307.56;1659894;84;26540;-77
2021/09/22 11:21:00;;;;;;;3.40;2.65;;;;;;;14.03;65.70;101306.98;1617884;83;25277;-77
2021/09/22 11:23:29;;;;;;;2.25;2.05;;;;;;;14.13;64.60;101306.15;1672408;84;25845;-79
2021/09/22 11:26:08;;;;;;;3.98;2.15;;;;;;;14.22;62.74;101303.12;1689436;84;25827;-78
2021/09/22 11:28:37;;;;;;;3.80;2.22;;;;;;;14.26;63.69;101308.47;1649349;85;27539;-77
2021/09/22 11:31:04;;;;;;;3.33;2.50;;;;;;;14.17;60.72;101304.73;1626979;85;25810;-77
2021/09/22 11:33:31;;;;;;;3.60;2.52;;;;;;;14.22;62.97;101305.00;1686907;83;25862;-77
2021/09/22 11:36:09;;;;;;;2.55;2.12;;;;;;;14.24;62.46;101293.52;1718291;83;26373;-78
2021/09/22 11:38:37;;;;;;;5.15;2.17;;;;;;;14.28;62.78;101297.48;1677353;84;25887;-78